createdAt,value
2023-01-29T00:04:44.705Z,-1.61
2023-01-29T00:09:47.319Z,-1.57
2023-01-29T00:14:49.460Z,-1.57
2023-01-29T00:19:52.056Z,-1.56
2023-01-29T00:24:55.053Z,-1.56
2023-01-29T00:30:16.716Z,-1.57
2023-01-29T00:35:20.462Z,-1.50
2023-01-29T00:40:25.167Z,-1.46
2023-01-29T00:45:28.493Z,-1.43
2023-01-29T00:50:32.771Z,-1.44
2023-01-29T00:55:35.662Z,-1.44
2023-01-29T01:00:38.606Z,-1.44
2023-01-29T01:05:43.343Z,-1.45
2023-01-29T01:10:46.744Z,-1.42
2023-01-29T01:15:49.809Z,-1.43
2023-01-29T01:21:00.393Z,-1.46
2023-01-29T01:26:10.215Z,-1.47
2023-01-29T01:31:14.258Z,-1.51
2023-01-29T01:36:18.327Z,-1.52
2023-01-29T01:41:22.831Z,-1.51
2023-01-29T01:46:27.918Z,-1.44
2023-01-29T01:51:34.776Z,-1.44
2023-01-29T01:56:46.404Z,-1.46
2023-01-29T02:01:54.678Z,-1.48
2023-01-29T02:07:18.315Z,-1.51
2023-01-29T02:12:21.485Z,-1.50
2023-01-29T02:17:24.361Z,-1.45
2023-01-29T02:22:56.111Z,-1.42
2023-01-29T02:28:25.341Z,-1.43
2023-01-29T02:33:48.675Z,-1.39
2023-01-29T02:39:30.508Z,-1.46
2023-01-29T02:44:53.013Z,-1.52
2023-01-29T02:50:05.188Z,-1.54
2023-01-29T02:55:18.518Z,-1.53
2023-01-29T03:00:26.500Z,-1.53
2023-01-29T03:05:33.571Z,-1.56
2023-01-29T03:11:03.437Z,-1.61
2023-01-29T03:16:36.632Z,-1.66
2023-01-29T03:21:51.743Z,-1.64
2023-01-29T03:27:15.872Z,-1.63
2023-01-29T03:32:22.536Z,-1.68
2023-01-29T03:37:37.012Z,-1.70
2023-01-29T03:42:45.796Z,-1.68
2023-01-29T03:48:17.850Z,-1.66
2023-01-29T03:53:44.296Z,-1.66
2023-01-29T03:58:50.880Z,-1.63
2023-01-29T04:04:12.703Z,-1.62
2023-01-29T04:09:25.129Z,-1.57
2023-01-29T04:14:28.021Z,-1.58
2023-01-29T04:19:30.521Z,-1.58
2023-01-29T04:24:33.626Z,-1.59
2023-01-29T04:30:00.337Z,-1.60
2023-01-29T04:35:25.152Z,-1.58
2023-01-29T04:40:37.852Z,-1.54
2023-01-29T04:46:08.455Z,-1.56
2023-01-29T04:51:32.412Z,-1.57
2023-01-29T04:56:46.785Z,-1.60
2023-01-29T05:01:50.389Z,-1.59
2023-01-29T05:06:52.979Z,-1.58
2023-01-29T05:11:55.481Z,-1.55
2023-01-29T05:17:01.435Z,-1.57
2023-01-29T05:22:06.400Z,-1.58
2023-01-29T05:27:49.937Z,-1.59
2023-01-29T05:32:52.978Z,-1.54
2023-01-29T05:37:56.710Z,-1.55
2023-01-29T05:43:00.145Z,-1.56
2023-01-29T05:48:02.973Z,-1.58
2023-01-29T05:53:06.327Z,-1.56
2023-01-29T05:58:09.014Z,-1.52
2023-01-29T06:03:12.218Z,-1.56
2023-01-29T06:08:15.383Z,-1.57
2023-01-29T06:13:19.333Z,-1.56
2023-01-29T06:18:21.442Z,-1.59
2023-01-29T06:23:24.746Z,-1.65
2023-01-29T06:28:27.701Z,-1.71
2023-01-29T06:33:31.084Z,-1.74
2023-01-29T06:38:35.391Z,-1.79
2023-01-29T06:43:39.639Z,-1.81
2023-01-29T06:48:43.012Z,-1.82
2023-01-29T06:53:46.711Z,-1.75
2023-01-29T06:58:50.757Z,-1.68
2023-01-29T07:03:54.058Z,-1.65
2023-01-29T07:08:57.598Z,-1.59
2023-01-29T07:14:01.248Z,-1.54
2023-01-29T07:19:04.208Z,-1.53
2023-01-29T07:24:08.449Z,-1.53
2023-01-29T07:29:11.217Z,-1.52
2023-01-29T07:34:15.033Z,-1.44
2023-01-29T07:39:18.385Z,-1.36
2023-01-29T07:44:22.363Z,-1.31
2023-01-29T07:49:25.504Z,-1.23
2023-01-29T07:54:28.373Z,-1.14
2023-01-29T07:59:32.184Z,-1.08
2023-01-29T08:04:34.767Z,-1.02
2023-01-29T08:09:38.208Z,-0.89
2023-01-29T08:14:40.903Z,-0.80
2023-01-29T08:19:42.997Z,-0.71
2023-01-29T08:24:53.938Z,-0.58
2023-01-29T08:30:03.628Z,-0.35
2023-01-29T08:35:06.591Z,-0.25
2023-01-29T08:40:11.248Z,-0.12
2023-01-29T08:45:14.276Z,0.02
2023-01-29T08:50:18.316Z,0.07
2023-01-29T08:55:21.776Z,0.11
2023-01-29T09:00:25.821Z,0.12
2023-01-29T09:05:28.658Z,0.10
2023-01-29T09:10:30.995Z,0.03
2023-01-29T09:15:33.091Z,0.03
2023-01-29T09:20:37.644Z,0.08
2023-01-29T09:25:43.689Z,0.27
2023-01-29T09:30:47.363Z,0.44
2023-01-29T09:35:49.695Z,0.48
2023-01-29T09:41:07.264Z,0.49
2023-01-29T09:46:40.888Z,0.51
2023-01-29T09:52:12.825Z,0.48
2023-01-29T09:57:51.974Z,0.42
2023-01-29T10:03:17.640Z,0.45
2023-01-29T10:08:51.204Z,0.47
2023-01-29T10:14:16.180Z,0.47
2023-01-29T10:19:49.770Z,0.37
2023-01-29T10:25:07.115Z,0.29
2023-01-29T10:30:27.650Z,0.25
2023-01-29T10:35:36.887Z,0.24
2023-01-29T10:40:48.040Z,0.24
2023-01-29T10:46:36.796Z,0.31
2023-01-29T10:52:13.872Z,0.30
2023-01-29T10:57:56.886Z,0.31
2023-01-29T11:03:27.019Z,0.40
2023-01-29T11:08:39.134Z,0.39
2023-01-29T11:14:07.677Z,0.32
2023-01-29T11:19:10.997Z,0.25
2023-01-29T11:24:18.963Z,0.23
2023-01-29T11:29:32.107Z,0.20
2023-01-29T11:34:37.945Z,0.18
2023-01-29T11:39:47.846Z,0.18
2023-01-29T11:44:52.123Z,0.10
2023-01-29T11:49:55.929Z,0.11
2023-01-29T11:55:04.434Z,0.13
2023-01-29T12:00:22.256Z,0.17
2023-01-29T12:05:26.529Z,0.22
2023-01-29T12:10:37.341Z,0.27
2023-01-29T12:15:43.618Z,0.28
2023-01-29T12:20:51.913Z,0.30
2023-01-29T12:26:20.119Z,0.33
2023-01-29T12:31:41.215Z,0.30
2023-01-29T12:37:11.521Z,0.29
2023-01-29T12:42:23.591Z,0.30
2023-01-29T12:48:09.384Z,0.27
2023-01-29T12:53:32.723Z,0.21
2023-01-29T12:58:39.190Z,0.14
2023-01-29T13:03:59.531Z,0.13
2023-01-29T13:09:08.280Z,0.07
2023-01-29T13:14:23.470Z,0.03
2023-01-29T13:19:33.334Z,-0.02
2023-01-29T13:24:44.372Z,0.00
2023-01-29T13:29:53.042Z,-0.02
2023-01-29T13:35:05.824Z,-0.03
2023-01-29T13:40:22.783Z,0.04
2023-01-29T13:45:42.363Z,0.02
2023-01-29T13:50:45.998Z,-0.05
2023-01-29T13:55:49.456Z,-0.04
2023-01-29T14:00:52.336Z,-0.03
2023-01-29T14:05:55.493Z,-0.03
2023-01-29T14:11:15.157Z,-0.06
2023-01-29T14:16:18.535Z,-0.08
2023-01-29T14:21:39.214Z,-0.10
2023-01-29T14:26:47.899Z,-0.10
2023-01-29T14:31:58.947Z,-0.14
2023-01-29T14:37:30.245Z,-0.15
2023-01-29T14:42:45.244Z,-0.18
2023-01-29T14:47:48.569Z,-0.20
2023-01-29T14:52:53.803Z,-0.21
2023-01-29T14:57:58.137Z,-0.19
2023-01-29T15:03:04.359Z,-0.21
2023-01-29T15:08:20.383Z,-0.17
2023-01-29T15:13:52.588Z,-0.13
2023-01-29T15:19:04.773Z,-0.16
2023-01-29T15:24:13.916Z,-0.21
2023-01-29T15:29:25.790Z,-0.27
2023-01-29T15:34:28.912Z,-0.27
2023-01-29T15:39:31.713Z,-0.24
2023-01-29T15:44:35.041Z,-0.24
2023-01-29T15:49:40.146Z,-0.21
2023-01-29T15:54:46.105Z,-0.18
2023-01-29T15:59:52.573Z,-0.10
2023-01-29T16:04:56.269Z,-0.10
2023-01-29T16:10:00.513Z,-0.12
2023-01-29T16:15:06.145Z,-0.17
2023-01-29T16:20:31.949Z,-0.27
2023-01-29T16:25:39.249Z,-0.27
2023-01-29T16:30:43.435Z,-0.21
2023-01-29T16:35:54.180Z,-0.14
2023-01-29T16:41:26.440Z,-0.10
2023-01-29T16:46:36.962Z,-0.14
2023-01-29T16:51:40.706Z,-0.15
2023-01-29T16:56:48.637Z,-0.17
2023-01-29T17:01:56.633Z,-0.21
2023-01-29T17:07:03.375Z,-0.24
2023-01-29T17:12:10.590Z,-0.24
2023-01-29T17:21:43.437Z,-0.15
2023-01-29T17:26:50.216Z,-0.13
2023-01-29T17:31:57.092Z,-0.12
2023-01-29T17:37:02.961Z,-0.17
2023-01-29T17:42:14.381Z,-0.16
2023-01-29T17:47:19.856Z,-0.13
2023-01-29T17:52:27.703Z,-0.10
2023-01-29T17:57:33.919Z,-0.08
2023-01-29T18:02:39.607Z,-0.11
2023-01-29T18:07:47.588Z,-0.16
2023-01-29T18:12:53.589Z,-0.19
2023-01-29T18:17:59.419Z,-0.19
2023-01-29T18:23:07.390Z,-0.17
2023-01-29T18:28:19.965Z,-0.12
2023-01-29T18:33:26.698Z,-0.12
2023-01-29T18:38:38.441Z,-0.15
2023-01-29T18:43:48.264Z,-0.19
2023-01-29T18:48:54.350Z,-0.20
2023-01-29T18:54:01.254Z,-0.20
2023-01-29T18:59:08.132Z,-0.14
2023-01-29T19:04:15.769Z,-0.12
2023-01-29T19:09:21.866Z,-0.14
2023-01-29T19:14:28.119Z,-0.16
2023-01-29T19:19:36.028Z,-0.10
2023-01-29T19:24:42.613Z,-0.07
2023-01-29T19:29:48.010Z,-0.04
2023-01-29T19:34:53.271Z,-0.05
2023-01-29T19:39:58.270Z,-0.03
2023-01-29T19:45:03.030Z,0.04
2023-01-29T19:50:12.365Z,0.03
2023-01-29T19:55:18.907Z,0.05
2023-01-29T20:00:24.274Z,0.07
2023-01-29T20:05:28.830Z,0.11
2023-01-29T20:10:33.768Z,0.11
2023-01-29T20:15:39.370Z,0.11
2023-01-29T20:20:51.563Z,0.10
2023-01-29T20:26:01.570Z,0.11
2023-01-29T20:31:09.568Z,0.12
2023-01-29T20:36:15.407Z,0.12
2023-01-29T20:41:20.091Z,0.14
2023-01-29T20:46:24.595Z,0.16
2023-01-29T20:51:31.424Z,0.18
2023-01-29T20:56:42.243Z,0.20
2023-01-29T21:01:48.351Z,0.15
2023-01-29T21:06:54.835Z,0.12
2023-01-29T21:12:01.767Z,0.15
2023-01-29T21:17:06.826Z,0.19
2023-01-29T21:22:11.409Z,0.22
2023-01-29T21:27:16.202Z,0.25
2023-01-29T21:32:21.671Z,0.23
2023-01-29T21:37:27.131Z,0.23
2023-01-29T21:42:50.364Z,0.24
2023-01-29T21:47:55.313Z,0.25
2023-01-29T21:53:00.017Z,0.25
2023-01-29T21:58:05.016Z,0.25
2023-01-29T22:03:08.952Z,0.23
2023-01-29T22:08:12.442Z,0.20
2023-01-29T22:13:17.051Z,0.18
2023-01-29T22:18:24.311Z,0.19
2023-01-29T22:23:30.263Z,0.17
2023-01-29T22:28:36.215Z,0.17
2023-01-29T22:33:40.648Z,0.16
2023-01-29T22:38:46.089Z,0.19
2023-01-29T22:43:53.005Z,0.16
2023-01-29T22:48:57.907Z,0.13
2023-01-29T22:54:02.594Z,0.07
2023-01-29T22:59:07.417Z,0.07
2023-01-29T23:04:12.181Z,0.05
2023-01-29T23:09:16.830Z,0.02
2023-01-29T23:14:24.707Z,0.01
2023-01-29T23:19:30.746Z,-0.01
2023-01-29T23:24:35.301Z,-0.02
2023-01-29T23:29:39.056Z,-0.02
2023-01-29T23:34:43.099Z,-0.05
2023-01-29T23:39:48.110Z,-0.05
2023-01-29T23:44:56.569Z,-0.05
2023-01-29T23:50:02.002Z,-0.07
2023-01-29T23:55:07.648Z,-0.13
